sensor_id;sensor_type;location;lat;lon;timestamp;P1;durP1;ratioP1;P2;durP2;ratioP2
18188;SDS011;9219;50.396;8.546;2022-10-16T00:00:34;2.97;;;0.90;;
18188;SDS011;9219;50.396;8.546;2022-10-16T00:03:03;4.80;;;0.93;;
18188;SDS011;9219;50.396;8.546;2022-10-16T00:05:32;1.93;;;1.23;;
18188;SDS011;9219;50.396;8.546;2022-10-16T00:08:05;1.77;;;1.23;;
18188;SDS011;9219;50.396;8.546;2022-10-16T00:10:33;5.77;;;1.17;;
18188;SDS011;9219;50.396;8.546;2022-10-16T00:13:01;1.33;;;0.90;;
18188;SDS011;9219;50.396;8.546;2022-10-16T00:15:38;2.90;;;0.77;;
18188;SDS011;9219;50.396;8.546;2022-10-16T00:18:13;1.90;;;1.17;;
18188;SDS011;9219;50.396;8.546;2022-10-16T00:28:19;2.03;;;1.13;;
18188;SDS011;9219;50.396;8.546;2022-10-16T00:30:48;1.20;;;1.10;;
18188;SDS011;9219;50.396;8.546;2022-10-16T00:33:15;2.30;;;1.10;;
18188;SDS011;9219;50.396;8.546;2022-10-16T00:35:43;2.77;;;1.10;;
18188;SDS011;9219;50.396;8.546;2022-10-16T00:38:10;3.93;;;1.10;;
18188;SDS011;9219;50.396;8.546;2022-10-16T00:40:39;0.93;;;0.80;;
18188;SDS011;9219;50.396;8.546;2022-10-16T00:43:09;7.23;;;1.30;;
18188;SDS011;9219;50.396;8.546;2022-10-16T00:45:42;3.03;;;1.10;;
18188;SDS011;9219;50.396;8.546;2022-10-16T00:48:11;1.43;;;1.20;;
18188;SDS011;9219;50.396;8.546;2022-10-16T00:55:59;1.50;;;1.07;;
18188;SDS011;9219;50.396;8.546;2022-10-16T00:58:28;4.70;;;1.40;;
18188;SDS011;9219;50.396;8.546;2022-10-16T01:00:57;3.90;;;1.40;;
18188;SDS011;9219;50.396;8.546;2022-10-16T01:03:27;1.50;;;1.30;;
18188;SDS011;9219;50.396;8.546;2022-10-16T01:06:02;4.33;;;1.33;;
18188;SDS011;9219;50.396;8.546;2022-10-16T01:08:44;2.50;;;1.30;;
18188;SDS011;9219;50.396;8.546;2022-10-16T01:11:20;3.23;;;1.20;;
18188;SDS011;9219;50.396;8.546;2022-10-16T01:18:47;3.43;;;1.30;;
18188;SDS011;9219;50.396;8.546;2022-10-16T01:21:25;1.73;;;1.50;;
18188;SDS011;9219;50.396;8.546;2022-10-16T01:23:58;2.03;;;1.80;;
18188;SDS011;9219;50.396;8.546;2022-10-16T01:26:35;3.80;;;1.40;;
18188;SDS011;9219;50.396;8.546;2022-10-16T01:29:13;4.43;;;1.67;;
18188;SDS011;9219;50.396;8.546;2022-10-16T01:31:46;6.83;;;1.87;;
18188;SDS011;9219;50.396;8.546;2022-10-16T01:34:20;5.70;;;1.93;;
18188;SDS011;9219;50.396;8.546;2022-10-16T01:41:58;1.50;;;1.20;;
18188;SDS011;9219;50.396;8.546;2022-10-16T01:44:32;2.73;;;1.47;;
18188;SDS011;9219;50.396;8.546;2022-10-16T01:47:02;1.57;;;1.40;;
18188;SDS011;9219;50.396;8.546;2022-10-16T01:49:31;1.63;;;1.30;;
18188;SDS011;9219;50.396;8.546;2022-10-16T01:52:03;1.50;;;1.30;;
18188;SDS011;9219;50.396;8.546;2022-10-16T01:54:33;1.23;;;1.13;;
18188;SDS011;9219;50.396;8.546;2022-10-16T01:57:03;2.90;;;1.47;;
18188;SDS011;9219;50.396;8.546;2022-10-16T02:04:39;2.43;;;1.37;;
18188;SDS011;9219;50.396;8.546;2022-10-16T02:07:10;1.43;;;1.13;;
18188;SDS011;9219;50.396;8.546;2022-10-16T02:09:41;1.93;;;1.40;;
18188;SDS011;9219;50.396;8.546;2022-10-16T02:12:09;3.00;;;0.80;;
18188;SDS011;9219;50.396;8.546;2022-10-16T02:14:41;2.83;;;0.97;;
18188;SDS011;9219;50.396;8.546;2022-10-16T02:17:10;7.60;;;1.23;;
18188;SDS011;9219;50.396;8.546;2022-10-16T02:19:39;1.10;;;0.70;;
18188;SDS011;9219;50.396;8.546;2022-10-16T02:25:15;1.50;;;0.80;;
18188;SDS011;9219;50.396;8.546;2022-10-16T02:27:47;3.87;;;1.10;;
18188;SDS011;9219;50.396;8.546;2022-10-16T02:30:22;2.50;;;0.90;;
18188;SDS011;9219;50.396;8.546;2022-10-16T02:32:54;0.87;;;0.87;;
18188;SDS011;9219;50.396;8.546;2022-10-16T02:35:29;2.40;;;1.00;;
18188;SDS011;9219;50.396;8.546;2022-10-16T02:37:58;2.63;;;1.00;;
18188;SDS011;9219;50.396;8.546;2022-10-16T02:40:27;1.07;;;0.97;;
18188;SDS011;9219;50.396;8.546;2022-10-16T02:45:49;1.80;;;0.90;;
18188;SDS011;9219;50.396;8.546;2022-10-16T02:48:17;1.50;;;0.80;;
18188;SDS011;9219;50.396;8.546;2022-10-16T02:50:44;6.03;;;1.37;;
18188;SDS011;9219;50.396;8.546;2022-10-16T02:53:12;2.07;;;1.70;;
18188;SDS011;9219;50.396;8.546;2022-10-16T02:55:39;1.43;;;1.23;;
18188;SDS011;9219;50.396;8.546;2022-10-16T02:58:09;1.67;;;1.10;;
18188;SDS011;9219;50.396;8.546;2022-10-16T03:00:36;1.20;;;1.10;;
18188;SDS011;9219;50.396;8.546;2022-10-16T03:06:09;1.10;;;1.00;;
18188;SDS011;9219;50.396;8.546;2022-10-16T03:08:37;1.47;;;1.07;;
18188;SDS011;9219;50.396;8.546;2022-10-16T03:11:05;1.00;;;0.90;;
18188;SDS011;9219;50.396;8.546;2022-10-16T03:13:32;1.00;;;0.93;;
18188;SDS011;9219;50.396;8.546;2022-10-16T03:16:01;2.00;;;1.00;;
18188;SDS011;9219;50.396;8.546;2022-10-16T03:18:28;2.27;;;0.90;;
18188;SDS011;9219;50.396;8.546;2022-10-16T03:20:56;6.83;;;0.83;;
18188;SDS011;9219;50.396;8.546;2022-10-16T03:29:16;5.03;;;0.90;;
18188;SDS011;9219;50.396;8.546;2022-10-16T03:31:46;1.33;;;0.80;;
18188;SDS011;9219;50.396;8.546;2022-10-16T03:34:15;2.47;;;0.67;;
18188;SDS011;9219;50.396;8.546;2022-10-16T03:36:43;0.80;;;0.80;;
18188;SDS011;9219;50.396;8.546;2022-10-16T03:39:10;0.67;;;0.60;;
18188;SDS011;9219;50.396;8.546;2022-10-16T03:41:38;2.10;;;1.00;;
18188;SDS011;9219;50.396;8.546;2022-10-16T03:44:06;5.70;;;1.00;;
18188;SDS011;9219;50.396;8.546;2022-10-16T03:46:36;2.27;;;0.90;;
18188;SDS011;9219;50.396;8.546;2022-10-16T03:56:53;2.20;;;1.17;;
18188;SDS011;9219;50.396;8.546;2022-10-16T03:59:40;4.27;;;1.10;;
18188;SDS011;9219;50.396;8.546;2022-10-16T04:02:07;1.50;;;0.90;;
18188;SDS011;9219;50.396;8.546;2022-10-16T04:04:35;1.33;;;0.97;;
18188;SDS011;9219;50.396;8.546;2022-10-16T04:07:02;0.80;;;0.77;;
18188;SDS011;9219;50.396;8.546;2022-10-16T04:09:29;2.30;;;0.83;;
18188;SDS011;9219;50.396;8.546;2022-10-16T04:12:04;1.30;;;0.57;;
18188;SDS011;9219;50.396;8.546;2022-10-16T04:14:31;0.70;;;0.67;;
18188;SDS011;9219;50.396;8.546;2022-10-16T04:22:06;1.00;;;0.90;;
18188;SDS011;9219;50.396;8.546;2022-10-16T04:24:33;0.93;;;0.60;;
18188;SDS011;9219;50.396;8.546;2022-10-16T04:27:01;4.83;;;0.70;;
18188;SDS011;9219;50.396;8.546;2022-10-16T04:29:29;0.50;;;0.50;;
18188;SDS011;9219;50.396;8.546;2022-10-16T04:31:56;8.33;;;2.00;;
18188;SDS011;9219;50.396;8.546;2022-10-16T04:34:26;6.80;;;0.73;;
18188;SDS011;9219;50.396;8.546;2022-10-16T04:36:53;0.67;;;0.67;;
18188;SDS011;9219;50.396;8.546;2022-10-16T04:42:03;3.00;;;0.67;;
18188;SDS011;9219;50.396;8.546;2022-10-16T04:44:33;0.40;;;0.40;;
18188;SDS011;9219;50.396;8.546;2022-10-16T04:47:02;1.50;;;0.60;;
18188;SDS011;9219;50.396;8.546;2022-10-16T04:49:30;1.53;;;0.70;;
18188;SDS011;9219;50.396;8.546;2022-10-16T04:51:58;3.07;;;0.80;;
18188;SDS011;9219;50.396;8.546;2022-10-16T04:54:25;6.90;;;1.00;;
18188;SDS011;9219;50.396;8.546;2022-10-16T04:57:00;1.47;;;0.97;;
18188;SDS011;9219;50.396;8.546;2022-10-16T05:02:21;0.87;;;0.87;;
18188;SDS011;9219;50.396;8.546;2022-10-16T05:04:49;1.60;;;0.97;;
18188;SDS011;9219;50.396;8.546;2022-10-16T05:07:17;2.20;;;1.10;;
18188;SDS011;9219;50.396;8.546;2022-10-16T05:09:49;1.37;;;1.20;;
18188;SDS011;9219;50.396;8.546;2022-10-16T05:12:16;2.37;;;1.37;;
18188;SDS011;9219;50.396;8.546;2022-10-16T05:14:44;5.40;;;1.10;;
18188;SDS011;9219;50.396;8.546;2022-10-16T05:17:11;1.10;;;1.00;;
18188;SDS011;9219;50.396;8.546;2022-10-16T05:23:43;1.50;;;1.40;;
18188;SDS011;9219;50.396;8.546;2022-10-16T05:26:10;5.17;;;2.43;;
18188;SDS011;9219;50.396;8.546;2022-10-16T05:28:38;3.57;;;2.70;;
18188;SDS011;9219;50.396;8.546;2022-10-16T05:31:06;4.37;;;2.87;;
18188;SDS011;9219;50.396;8.546;2022-10-16T05:33:34;2.87;;;2.53;;
18188;SDS011;9219;50.396;8.546;2022-10-16T05:36:02;2.57;;;2.37;;
18188;SDS011;9219;50.396;8.546;2022-10-16T05:38:33;2.83;;;2.50;;
18188;SDS011;9219;50.396;8.546;2022-10-16T05:46:07;3.47;;;2.40;;
18188;SDS011;9219;50.396;8.546;2022-10-16T05:48:46;1.40;;;1.30;;
18188;SDS011;9219;50.396;8.546;2022-10-16T05:51:14;1.93;;;1.50;;
18188;SDS011;9219;50.396;8.546;2022-10-16T05:53:41;3.03;;;1.70;;
18188;SDS011;9219;50.396;8.546;2022-10-16T05:56:14;1.63;;;1.30;;
18188;SDS011;9219;50.396;8.546;2022-10-16T05:58:43;4.13;;;1.90;;
18188;SDS011;9219;50.396;8.546;2022-10-16T06:01:13;2.27;;;1.80;;
18188;SDS011;9219;50.396;8.546;2022-10-16T06:03:43;1.83;;;1.53;;
18188;SDS011;9219;50.396;8.546;2022-10-16T06:11:17;2.43;;;1.90;;
18188;SDS011;9219;50.396;8.546;2022-10-16T06:13:48;2.57;;;2.20;;
18188;SDS011;9219;50.396;8.546;2022-10-16T06:16:17;3.40;;;3.10;;
18188;SDS011;9219;50.396;8.546;2022-10-16T06:18:45;3.87;;;3.07;;
18188;SDS011;9219;50.396;8.546;2022-10-16T06:21:14;4.50;;;3.10;;
18188;SDS011;9219;50.396;8.546;2022-10-16T06:23:44;4.67;;;4.07;;
18188;SDS011;9219;50.396;8.546;2022-10-16T06:26:14;5.40;;;4.13;;
18188;SDS011;9219;50.396;8.546;2022-10-16T06:28:53;5.87;;;4.50;;
18188;SDS011;9219;50.396;8.546;2022-10-16T06:36:27;6.20;;;4.13;;
18188;SDS011;9219;50.396;8.546;2022-10-16T06:38:55;4.97;;;4.00;;
18188;SDS011;9219;50.396;8.546;2022-10-16T06:41:23;5.10;;;4.23;;
18188;SDS011;9219;50.396;8.546;2022-10-16T06:43:50;5.53;;;4.80;;
18188;SDS011;9219;50.396;8.546;2022-10-16T06:46:19;7.97;;;4.23;;
18188;SDS011;9219;50.396;8.546;2022-10-16T06:48:52;5.33;;;3.93;;
18188;SDS011;9219;50.396;8.546;2022-10-16T06:51:21;6.00;;;4.30;;
18188;SDS011;9219;50.396;8.546;2022-10-16T06:56:31;4.63;;;4.17;;
18188;SDS011;9219;50.396;8.546;2022-10-16T06:58:59;4.33;;;3.60;;
18188;SDS011;9219;50.396;8.546;2022-10-16T07:01:27;4.93;;;4.17;;
18188;SDS011;9219;50.396;8.546;2022-10-16T07:03:55;4.77;;;3.80;;
18188;SDS011;9219;50.396;8.546;2022-10-16T07:06:25;5.03;;;4.00;;
18188;SDS011;9219;50.396;8.546;2022-10-16T07:08:54;10.73;;;4.73;;
18188;SDS011;9219;50.396;8.546;2022-10-16T07:11:22;6.63;;;4.70;;
18188;SDS011;9219;50.396;8.546;2022-10-16T07:13:52;7.37;;;4.83;;
18188;SDS011;9219;50.396;8.546;2022-10-16T07:16:54;8.43;;;4.13;;
18188;SDS011;9219;50.396;8.546;2022-10-16T07:19:22;3.77;;;3.47;;
18188;SDS011;9219;50.396;8.546;2022-10-16T07:21:52;3.20;;;2.90;;
18188;SDS011;9219;50.396;8.546;2022-10-16T07:24:20;4.57;;;2.70;;
18188;SDS011;9219;50.396;8.546;2022-10-16T07:26:47;4.60;;;2.90;;
18188;SDS011;9219;50.396;8.546;2022-10-16T07:29:16;3.47;;;3.00;;
18188;SDS011;9219;50.396;8.546;2022-10-16T07:31:45;3.20;;;2.60;;
18188;SDS011;9219;50.396;8.546;2022-10-16T07:39:14;4.97;;;2.60;;
18188;SDS011;9219;50.396;8.546;2022-10-16T07:41:42;2.80;;;2.50;;
18188;SDS011;9219;50.396;8.546;2022-10-16T07:44:09;2.63;;;2.30;;
18188;SDS011;9219;50.396;8.546;2022-10-16T07:46:39;5.07;;;2.27;;
18188;SDS011;9219;50.396;8.546;2022-10-16T07:49:08;4.70;;;2.87;;
18188;SDS011;9219;50.396;8.546;2022-10-16T07:51:35;3.10;;;2.57;;
18188;SDS011;9219;50.396;8.546;2022-10-16T07:54:07;3.40;;;2.20;;
18188;SDS011;9219;50.396;8.546;2022-10-16T07:59:16;3.07;;;2.77;;
18188;SDS011;9219;50.396;8.546;2022-10-16T08:01:44;3.70;;;2.57;;
18188;SDS011;9219;50.396;8.546;2022-10-16T08:04:12;2.83;;;2.37;;
18188;SDS011;9219;50.396;8.546;2022-10-16T08:06:39;4.37;;;2.33;;
18188;SDS011;9219;50.396;8.546;2022-10-16T08:09:07;2.47;;;2.27;;
18188;SDS011;9219;50.396;8.546;2022-10-16T08:11:34;3.00;;;2.50;;
18188;SDS011;9219;50.396;8.546;2022-10-16T08:14:03;2.40;;;2.20;;
18188;SDS011;9219;50.396;8.546;2022-10-16T08:16:32;2.60;;;2.27;;
18188;SDS011;9219;50.396;8.546;2022-10-16T08:24:05;2.50;;;2.30;;
18188;SDS011;9219;50.396;8.546;2022-10-16T08:26:36;2.00;;;1.80;;
18188;SDS011;9219;50.396;8.546;2022-10-16T08:29:05;7.77;;;2.30;;
18188;SDS011;9219;50.396;8.546;2022-10-16T08:31:33;2.23;;;1.77;;
18188;SDS011;9219;50.396;8.546;2022-10-16T08:34:01;2.30;;;2.10;;
18188;SDS011;9219;50.396;8.546;2022-10-16T08:36:32;2.20;;;1.97;;
18188;SDS011;9219;50.396;8.546;2022-10-16T08:39:02;3.30;;;2.27;;
18188;SDS011;9219;50.396;8.546;2022-10-16T08:46:50;2.07;;;1.87;;
18188;SDS011;9219;50.396;8.546;2022-10-16T08:49:27;1.63;;;1.40;;
18188;SDS011;9219;50.396;8.546;2022-10-16T08:51:57;1.93;;;1.43;;
18188;SDS011;9219;50.396;8.546;2022-10-16T08:54:28;4.00;;;2.20;;
18188;SDS011;9219;50.396;8.546;2022-10-16T08:57:04;1.50;;;1.30;;
18188;SDS011;9219;50.396;8.546;2022-10-16T08:59:47;2.30;;;1.13;;
18188;SDS011;9219;50.396;8.546;2022-10-16T09:02:23;1.73;;;1.60;;
18188;SDS011;9219;50.396;8.546;2022-10-16T09:05:04;1.83;;;1.10;;
18188;SDS011;9219;50.396;8.546;2022-10-16T09:07:54;2.03;;;1.40;;
18188;SDS011;9219;50.396;8.546;2022-10-16T09:15:49;0.90;;;0.77;;
18188;SDS011;9219;50.396;8.546;2022-10-16T09:18:24;1.43;;;1.10;;
18188;SDS011;9219;50.396;8.546;2022-10-16T09:21:00;0.80;;;0.80;;
18188;SDS011;9219;50.396;8.546;2022-10-16T09:23:37;2.50;;;1.00;;
18188;SDS011;9219;50.396;8.546;2022-10-16T09:26:09;0.80;;;0.80;;
18188;SDS011;9219;50.396;8.546;2022-10-16T09:28:38;0.50;;;0.50;;
18188;SDS011;9219;50.396;8.546;2022-10-16T09:41:44;3.70;;;0.70;;
18188;SDS011;9219;50.396;8.546;2022-10-16T09:44:19;1.03;;;0.80;;
18188;SDS011;9219;50.396;8.546;2022-10-16T09:47:00;0.93;;;0.67;;
18188;SDS011;9219;50.396;8.546;2022-10-16T09:49:30;0.60;;;0.60;;
18188;SDS011;9219;50.396;8.546;2022-10-16T09:52:05;0.77;;;0.70;;
18188;SDS011;9219;50.396;8.546;2022-10-16T09:54:50;3.30;;;0.60;;
18188;SDS011;9219;50.396;8.546;2022-10-16T10:00:17;4.17;;;0.70;;
18188;SDS011;9219;50.396;8.546;2022-10-16T10:02:46;0.57;;;0.57;;
18188;SDS011;9219;50.396;8.546;2022-10-16T10:05:18;1.50;;;0.57;;
18188;SDS011;9219;50.396;8.546;2022-10-16T10:08:04;0.90;;;0.60;;
18188;SDS011;9219;50.396;8.546;2022-10-16T10:10:32;4.73;;;0.90;;
18188;SDS011;9219;50.396;8.546;2022-10-16T10:13:04;2.87;;;0.60;;
18188;SDS011;9219;50.396;8.546;2022-10-16T10:15:45;1.40;;;0.57;;
18188;SDS011;9219;50.396;8.546;2022-10-16T10:23:21;1.47;;;0.77;;
18188;SDS011;9219;50.396;8.546;2022-10-16T10:25:51;0.63;;;0.57;;
18188;SDS011;9219;50.396;8.546;2022-10-16T10:28:27;0.87;;;0.60;;
18188;SDS011;9219;50.396;8.546;2022-10-16T10:31:07;2.67;;;0.40;;
18188;SDS011;9219;50.396;8.546;2022-10-16T10:33:45;1.43;;;0.63;;
18188;SDS011;9219;50.396;8.546;2022-10-16T10:36:29;0.77;;;0.77;;
18188;SDS011;9219;50.396;8.546;2022-10-16T10:39:06;0.50;;;0.50;;
18188;SDS011;9219;50.396;8.546;2022-10-16T10:47:04;0.73;;;0.50;;
18188;SDS011;9219;50.396;8.546;2022-10-16T10:49:54;1.53;;;0.50;;
18188;SDS011;9219;50.396;8.546;2022-10-16T10:55:52;1.17;;;0.63;;
18188;SDS011;9219;50.396;8.546;2022-10-16T10:58:39;0.50;;;0.50;;
18188;SDS011;9219;50.396;8.546;2022-10-16T11:01:27;0.40;;;0.40;;
18188;SDS011;9219;50.396;8.546;2022-10-16T11:12:05;0.97;;;0.50;;
18188;SDS011;9219;50.396;8.546;2022-10-16T11:14:43;1.10;;;0.70;;
18188;SDS011;9219;50.396;8.546;2022-10-16T11:17:19;4.47;;;0.60;;
18188;SDS011;9219;50.396;8.546;2022-10-16T11:19:56;0.53;;;0.40;;
18188;SDS011;9219;50.396;8.546;2022-10-16T11:22:32;0.40;;;0.40;;
18188;SDS011;9219;50.396;8.546;2022-10-16T11:25:06;2.30;;;0.40;;
18188;SDS011;9219;50.396;8.546;2022-10-16T11:27:44;0.97;;;0.50;;
18188;SDS011;9219;50.396;8.546;2022-10-16T11:35:39;1.07;;;0.30;;
18188;SDS011;9219;50.396;8.546;2022-10-16T11:38:15;0.50;;;0.50;;
18188;SDS011;9219;50.396;8.546;2022-10-16T11:40:56;1.13;;;0.50;;
18188;SDS011;9219;50.396;8.546;2022-10-16T11:43:32;0.70;;;0.60;;
18188;SDS011;9219;50.396;8.546;2022-10-16T11:46:05;1.10;;;0.53;;
18188;SDS011;9219;50.396;8.546;2022-10-16T11:48:41;0.80;;;0.60;;
18188;SDS011;9219;50.396;8.546;2022-10-16T11:51:16;0.70;;;0.70;;
18188;SDS011;9219;50.396;8.546;2022-10-16T11:54:08;0.50;;;0.43;;
18188;SDS011;9219;50.396;8.546;2022-10-16T11:56:48;1.93;;;0.50;;
18188;SDS011;9219;50.396;8.546;2022-10-16T11:59:21;0.63;;;0.63;;
18188;SDS011;9219;50.396;8.546;2022-10-16T12:01:57;0.33;;;0.33;;
18188;SDS011;9219;50.396;8.546;2022-10-16T12:04:42;0.90;;;0.47;;
18188;SDS011;9219;50.396;8.546;2022-10-16T12:07:32;1.90;;;0.50;;
18188;SDS011;9219;50.396;8.546;2022-10-16T12:10:17;1.27;;;0.60;;
18188;SDS011;9219;50.396;8.546;2022-10-16T12:21:44;0.87;;;0.70;;
18188;SDS011;9219;50.396;8.546;2022-10-16T12:24:27;0.50;;;0.50;;
18188;SDS011;9219;50.396;8.546;2022-10-16T12:27:04;1.33;;;0.87;;
18188;SDS011;9219;50.396;8.546;2022-10-16T12:29:54;0.90;;;0.80;;
18188;SDS011;9219;50.396;8.546;2022-10-16T12:32:30;2.07;;;0.30;;
18188;SDS011;9219;50.396;8.546;2022-10-16T12:35:17;0.47;;;0.47;;
18188;SDS011;9219;50.396;8.546;2022-10-16T12:46:55;3.27;;;0.50;;
18188;SDS011;9219;50.396;8.546;2022-10-16T12:49:29;0.43;;;0.30;;
18188;SDS011;9219;50.396;8.546;2022-10-16T12:52:01;0.37;;;0.27;;
18188;SDS011;9219;50.396;8.546;2022-10-16T12:54:35;1.60;;;0.50;;
18188;SDS011;9219;50.396;8.546;2022-10-16T12:57:20;0.40;;;0.40;;
18188;SDS011;9219;50.396;8.546;2022-10-16T13:00:07;0.93;;;0.43;;
18188;SDS011;9219;50.396;8.546;2022-10-16T13:11:26;8.07;;;1.13;;
18188;SDS011;9219;50.396;8.546;2022-10-16T13:14:24;2.90;;;1.70;;
18188;SDS011;9219;50.396;8.546;2022-10-16T13:17:30;2.23;;;1.40;;
18188;SDS011;9219;50.396;8.546;2022-10-16T13:20:53;1.10;;;1.10;;
18188;SDS011;9219;50.396;8.546;2022-10-16T13:23:33;3.80;;;1.17;;
18188;SDS011;9219;50.396;8.546;2022-10-16T13:26:11;1.90;;;1.57;;
18188;SDS011;9219;50.396;8.546;2022-10-16T13:33:30;13.27;;;1.40;;
18188;SDS011;9219;50.396;8.546;2022-10-16T13:36:03;4.27;;;1.57;;
18188;SDS011;9219;50.396;8.546;2022-10-16T13:38:34;2.27;;;1.53;;
18188;SDS011;9219;50.396;8.546;2022-10-16T13:41:13;2.27;;;1.57;;
18188;SDS011;9219;50.396;8.546;2022-10-16T13:43:45;3.93;;;1.50;;
18188;SDS011;9219;50.396;8.546;2022-10-16T13:46:17;3.43;;;1.20;;
18188;SDS011;9219;50.396;8.546;2022-10-16T13:48:57;3.67;;;1.40;;
18188;SDS011;9219;50.396;8.546;2022-10-16T13:54:09;1.83;;;0.93;;
18188;SDS011;9219;50.396;8.546;2022-10-16T13:56:40;1.20;;;1.00;;
18188;SDS011;9219;50.396;8.546;2022-10-16T13:59:22;0.63;;;0.63;;
18188;SDS011;9219;50.396;8.546;2022-10-16T14:01:55;3.40;;;0.83;;
18188;SDS011;9219;50.396;8.546;2022-10-16T14:04:25;0.70;;;0.70;;
18188;SDS011;9219;50.396;8.546;2022-10-16T14:06:59;0.80;;;0.80;;
18188;SDS011;9219;50.396;8.546;2022-10-16T14:09:33;1.20;;;0.90;;
18188;SDS011;9219;50.396;8.546;2022-10-16T14:14:47;1.40;;;1.30;;
18188;SDS011;9219;50.396;8.546;2022-10-16T14:17:20;3.60;;;1.20;;
18188;SDS011;9219;50.396;8.546;2022-10-16T14:19:52;0.93;;;0.73;;
18188;SDS011;9219;50.396;8.546;2022-10-16T14:22:33;1.10;;;1.00;;
18188;SDS011;9219;50.396;8.546;2022-10-16T14:25:18;1.27;;;1.17;;
18188;SDS011;9219;50.396;8.546;2022-10-16T14:27:57;1.60;;;1.00;;
18188;SDS011;9219;50.396;8.546;2022-10-16T14:30:34;2.40;;;1.10;;
18188;SDS011;9219;50.396;8.546;2022-10-16T14:33:18;1.00;;;1.00;;
18188;SDS011;9219;50.396;8.546;2022-10-16T14:40:49;1.40;;;1.30;;
18188;SDS011;9219;50.396;8.546;2022-10-16T14:43:35;1.23;;;1.13;;
18188;SDS011;9219;50.396;8.546;2022-10-16T14:46:07;2.67;;;1.33;;
18188;SDS011;9219;50.396;8.546;2022-10-16T14:48:41;1.93;;;1.17;;
18188;SDS011;9219;50.396;8.546;2022-10-16T14:51:15;3.03;;;1.17;;
18188;SDS011;9219;50.396;8.546;2022-10-16T14:53:49;1.60;;;1.07;;
18188;SDS011;9219;50.396;8.546;2022-10-16T14:56:29;2.47;;;1.00;;
18188;SDS011;9219;50.396;8.546;2022-10-16T15:04:19;2.90;;;1.00;;
18188;SDS011;9219;50.396;8.546;2022-10-16T15:06:47;1.20;;;1.10;;
18188;SDS011;9219;50.396;8.546;2022-10-16T15:09:20;5.10;;;1.30;;
18188;SDS011;9219;50.396;8.546;2022-10-16T15:11:51;2.00;;;1.07;;
18188;SDS011;9219;50.396;8.546;2022-10-16T15:14:20;1.67;;;0.90;;
18188;SDS011;9219;50.396;8.546;2022-10-16T15:16:50;1.57;;;1.20;;
18188;SDS011;9219;50.396;8.546;2022-10-16T15:19:24;2.03;;;1.10;;
18188;SDS011;9219;50.396;8.546;2022-10-16T15:26:48;2.23;;;1.20;;
18188;SDS011;9219;50.396;8.546;2022-10-16T15:29:20;1.17;;;0.83;;
18188;SDS011;9219;50.396;8.546;2022-10-16T15:31:58;1.37;;;1.13;;
18188;SDS011;9219;50.396;8.546;2022-10-16T15:34:28;1.37;;;1.27;;
18188;SDS011;9219;50.396;8.546;2022-10-16T15:37:02;1.20;;;1.10;;
18188;SDS011;9219;50.396;8.546;2022-10-16T15:39:35;5.17;;;1.20;;
18188;SDS011;9219;50.396;8.546;2022-10-16T15:42:09;2.40;;;1.00;;
18188;SDS011;9219;50.396;8.546;2022-10-16T15:50:36;1.43;;;1.20;;
18188;SDS011;9219;50.396;8.546;2022-10-16T15:53:14;3.20;;;1.07;;
18188;SDS011;9219;50.396;8.546;2022-10-16T15:56:01;4.60;;;1.23;;
18188;SDS011;9219;50.396;8.546;2022-10-16T15:58:34;2.90;;;1.40;;
18188;SDS011;9219;50.396;8.546;2022-10-16T16:01:07;6.53;;;1.30;;
18188;SDS011;9219;50.396;8.546;2022-10-16T16:03:40;5.57;;;1.50;;
18188;SDS011;9219;50.396;8.546;2022-10-16T16:06:15;3.03;;;1.37;;
18188;SDS011;9219;50.396;8.546;2022-10-16T16:08:46;2.17;;;1.53;;
18188;SDS011;9219;50.396;8.546;2022-10-16T16:16:40;3.23;;;1.87;;
18188;SDS011;9219;50.396;8.546;2022-10-16T16:19:13;3.73;;;2.07;;
18188;SDS011;9219;50.396;8.546;2022-10-16T16:21:52;5.47;;;1.90;;
18188;SDS011;9219;50.396;8.546;2022-10-16T16:24:28;3.93;;;2.00;;
18188;SDS011;9219;50.396;8.546;2022-10-16T16:27:01;4.83;;;2.90;;
18188;SDS011;9219;50.396;8.546;2022-10-16T16:29:35;3.07;;;2.23;;
18188;SDS011;9219;50.396;8.546;2022-10-16T16:32:23;3.33;;;2.13;;
18188;SDS011;9219;50.396;8.546;2022-10-16T16:34:55;2.97;;;1.80;;
18188;SDS011;9219;50.396;8.546;2022-10-16T16:42:37;8.37;;;2.30;;
18188;SDS011;9219;50.396;8.546;2022-10-16T16:45:10;4.20;;;2.53;;
18188;SDS011;9219;50.396;8.546;2022-10-16T16:47:40;8.70;;;2.37;;
18188;SDS011;9219;50.396;8.546;2022-10-16T16:50:08;6.53;;;2.60;;
18188;SDS011;9219;50.396;8.546;2022-10-16T16:52:38;8.00;;;2.80;;
18188;SDS011;9219;50.396;8.546;2022-10-16T16:55:07;7.03;;;2.77;;
18188;SDS011;9219;50.396;8.546;2022-10-16T16:57:40;6.90;;;2.10;;
18188;SDS011;9219;50.396;8.546;2022-10-16T17:05:19;3.70;;;2.87;;
18188;SDS011;9219;50.396;8.546;2022-10-16T17:07:56;3.60;;;2.90;;
18188;SDS011;9219;50.396;8.546;2022-10-16T17:10:32;5.90;;;3.37;;
18188;SDS011;9219;50.396;8.546;2022-10-16T17:13:03;2.90;;;2.60;;
18188;SDS011;9219;50.396;8.546;2022-10-16T17:15:34;4.70;;;3.10;;
18188;SDS011;9219;50.396;8.546;2022-10-16T17:18:05;5.20;;;3.73;;
18188;SDS011;9219;50.396;8.546;2022-10-16T17:20:37;5.80;;;3.20;;
18188;SDS011;9219;50.396;8.546;2022-10-16T17:23:12;3.97;;;3.50;;
18188;SDS011;9219;50.396;8.546;2022-10-16T17:29:49;4.63;;;4.00;;
18188;SDS011;9219;50.396;8.546;2022-10-16T17:32:23;4.50;;;4.10;;
18188;SDS011;9219;50.396;8.546;2022-10-16T17:34:57;5.97;;;3.70;;
18188;SDS011;9219;50.396;8.546;2022-10-16T17:37:28;5.40;;;4.37;;
18188;SDS011;9219;50.396;8.546;2022-10-16T17:40:00;6.63;;;4.53;;
18188;SDS011;9219;50.396;8.546;2022-10-16T17:42:29;7.30;;;5.60;;
18188;SDS011;9219;50.396;8.546;2022-10-16T17:45:00;5.73;;;5.13;;
18188;SDS011;9219;50.396;8.546;2022-10-16T17:47:32;5.70;;;5.13;;
18188;SDS011;9219;50.396;8.546;2022-10-16T17:55:24;9.83;;;5.63;;
18188;SDS011;9219;50.396;8.546;2022-10-16T17:57:54;6.73;;;6.03;;
18188;SDS011;9219;50.396;8.546;2022-10-16T18:00:25;7.40;;;5.63;;
18188;SDS011;9219;50.396;8.546;2022-10-16T18:03:01;6.97;;;6.03;;
18188;SDS011;9219;50.396;8.546;2022-10-16T18:05:39;7.50;;;6.10;;
18188;SDS011;9219;50.396;8.546;2022-10-16T18:08:13;8.60;;;5.93;;
18188;SDS011;9219;50.396;8.546;2022-10-16T18:10:51;10.20;;;6.60;;
18188;SDS011;9219;50.396;8.546;2022-10-16T18:18:29;7.53;;;5.27;;
18188;SDS011;9219;50.396;8.546;2022-10-16T18:20:58;15.43;;;5.60;;
18188;SDS011;9219;50.396;8.546;2022-10-16T18:23:32;7.83;;;6.27;;
18188;SDS011;9219;50.396;8.546;2022-10-16T18:26:09;8.47;;;6.30;;
18188;SDS011;9219;50.396;8.546;2022-10-16T18:28:39;16.07;;;6.17;;
18188;SDS011;9219;50.396;8.546;2022-10-16T18:31:16;8.63;;;6.53;;
18188;SDS011;9219;50.396;8.546;2022-10-16T18:33:48;8.83;;;6.90;;
18188;SDS011;9219;50.396;8.546;2022-10-16T18:36:21;8.40;;;5.93;;
18188;SDS011;9219;50.396;8.546;2022-10-16T18:43:53;7.93;;;5.80;;
18188;SDS011;9219;50.396;8.546;2022-10-16T18:46:22;7.73;;;6.03;;
18188;SDS011;9219;50.396;8.546;2022-10-16T18:48:52;8.60;;;6.57;;
18188;SDS011;9219;50.396;8.546;2022-10-16T18:51:22;6.90;;;5.83;;
18188;SDS011;9219;50.396;8.546;2022-10-16T18:53:52;8.33;;;6.47;;
18188;SDS011;9219;50.396;8.546;2022-10-16T18:56:21;9.87;;;6.33;;
18188;SDS011;9219;50.396;8.546;2022-10-16T18:58:57;7.23;;;6.43;;
18188;SDS011;9219;50.396;8.546;2022-10-16T19:01:29;10.10;;;7.13;;
18188;SDS011;9219;50.396;8.546;2022-10-16T19:09:10;9.10;;;7.10;;
18188;SDS011;9219;50.396;8.546;2022-10-16T19:11:41;8.43;;;6.13;;
18188;SDS011;9219;50.396;8.546;2022-10-16T19:14:15;12.50;;;6.87;;
18188;SDS011;9219;50.396;8.546;2022-10-16T19:16:53;7.97;;;6.43;;
18188;SDS011;9219;50.396;8.546;2022-10-16T19:19:27;9.17;;;6.10;;
18188;SDS011;9219;50.396;8.546;2022-10-16T19:21:59;7.83;;;6.43;;
18188;SDS011;9219;50.396;8.546;2022-10-16T19:24:45;9.80;;;6.23;;
18188;SDS011;9219;50.396;8.546;2022-10-16T19:27:14;11.30;;;6.73;;
18188;SDS011;9219;50.396;8.546;2022-10-16T19:32:47;9.23;;;6.03;;
18188;SDS011;9219;50.396;8.546;2022-10-16T19:35:20;8.63;;;6.07;;
18188;SDS011;9219;50.396;8.546;2022-10-16T19:37:52;15.73;;;6.97;;
18188;SDS011;9219;50.396;8.546;2022-10-16T19:40:24;7.10;;;6.10;;
18188;SDS011;9219;50.396;8.546;2022-10-16T19:42:54;6.77;;;5.97;;